Time;durP1;ratioP1;P1;durP2;ratioP2;P2;SDS_P1;SDS_P2;PMS_P1;PMS_P2;Temp;Humidity;BMP_temperature;BMP_pressure;BME280_temperature;BME280_humidity;BME280_pressure;Samples;Min_cycle;Max_cycle;Signal;HPM_P1;HPM_P2
2023/05/14 00:01:50;;;;;;;;;;;;;;;;;;5000275;28;20174;-75
2023/05/14 00:04:18;;;;;;;4.15;1.10;;;;;;;;;;5002126;28;19924;-76
2023/05/14 00:06:44;;;;;;;5.15;1.50;;;;;;;;;;4998582;28;20077;-76
2023/05/14 00:09:11;;;;;;;4.20;1.20;;;;;;;;;;5001572;28;20099;-76
2023/05/14 00:11:38;;;;;;;4.30;1.20;;;;;;;;;;4999916;28;20350;-76
2023/05/14 00:14:04;;;;;;;;;;;;;;;;;;4998107;28;20048;-76
2023/05/14 00:16:30;;;;;;;3.60;1.13;;;;;;;;;;5001747;28;20341;-76
2023/05/14 00:18:56;;;;;;;4.40;1.23;;;;;;;;;;4999005;28;20084;-76
2023/05/14 00:21:22;;;;;;;;;;;;;;;;;;5001567;28;20033;-76
2023/05/14 00:23:48;;;;;;;2.28;0.77;;;;;;;;;;4996779;28;20224;-76
2023/05/14 00:26:15;;;;;;;5.60;1.30;;;;;;;;;;4999604;28;20469;-77
2023/05/14 00:28:41;;;;;;;4.55;1.15;;;;;;;;;;4998287;28;20939;-76
2023/05/14 00:31:07;;;;;;;5.40;1.30;;;;;;;;;;5000137;28;20332;-75
2023/05/14 00:33:34;;;;;;;6.50;1.20;;;;;;;;;;5001018;28;20424;-77
2023/05/14 00:36:00;;;;;;;4.57;1.17;;;;;;;;;;4998434;28;20756;-76
2023/05/14 00:38:27;;;;;;;6.88;1.50;;;;;;;;;;5002074;28;20033;-76
2023/05/14 00:40:53;;;;;;;6.30;1.35;;;;;;;;;;4997509;28;20073;-77
2023/05/14 00:43:19;;;;;;;;;;;;;;;;;;5001070;28;20089;-77
2023/05/14 00:45:45;;;;;;;5.63;1.20;;;;;;;;;;4995105;28;20371;-77
2023/05/14 00:48:11;;;;;;;;;;;;;;;;;;4999548;28;20033;-77
2023/05/14 00:50:38;;;;;;;5.03;1.30;;;;;;;;;;4999988;28;19984;-78
2023/05/14 00:53:08;;;;;;;4.88;1.30;;;;;;;;;;4994138;28;20029;-79
2023/05/14 00:55:35;;;;;;;4.03;1.00;;;;;;;;;;5030036;28;20387;-77
2023/05/14 00:58:01;;;;;;;;;;;;;;;;;;4997793;28;20088;-76
2023/05/14 01:00:27;;;;;;;5.13;1.23;;;;;;;;;;4999310;28;19925;-76
2023/05/14 01:02:53;;;;;;;5.30;1.20;;;;;;;;;;4999196;28;20316;-75
2023/05/14 01:05:19;;;;;;;;;;;;;;;;;;5003535;28;20026;-75
2023/05/14 01:08:02;;;;;;;4.80;1.27;;;;;;;;;;4994621;28;19913;-75
2023/05/14 01:10:32;;;;;;;6.32;1.35;;;;;;;;;;4997248;28;20738;-76
2023/05/14 01:12:58;;;;;;;5.40;1.38;;;;;;;;;;4996239;28;20036;-75
2023/05/14 01:15:26;;;;;;;3.60;1.10;;;;;;;;;;4997026;28;20040;-76
2023/05/14 01:18:13;;;;;;;5.25;1.33;;;;;;;;;;5007957;28;20037;-76
2023/05/14 01:20:39;;;;;;;7.57;1.48;;;;;;;;;;4997390;28;20053;-76
2023/05/14 01:23:05;;;;;;;3.80;1.13;;;;;;;;;;4997174;28;20367;-76
2023/05/14 01:25:32;;;;;;;6.63;1.17;;;;;;;;;;5000755;28;20102;-76
2023/05/14 01:28:17;;;;;;;3.05;1.00;;;;;;;;;;4996023;28;20037;-76
2023/05/14 01:30:51;;;;;;;4.43;0.93;;;;;;;;;;4993234;28;20125;-75
2023/05/14 01:33:18;;;;;;;2.85;0.90;;;;;;;;;;5002906;28;21188;-75
2023/05/14 01:35:44;;;;;;;6.18;1.20;;;;;;;;;;4995841;28;20423;-75
2023/05/14 01:38:10;;;;;;;;;;;;;;;;;;4999763;28;20029;-75
2023/05/14 01:40:37;;;;;;;4.35;1.20;;;;;;;;;;5001200;28;19913;-75
2023/05/14 01:43:04;;;;;;;7.50;1.20;;;;;;;;;;4997517;28;20033;-75
2023/05/14 01:45:30;;;;;;;5.07;1.00;;;;;;;;;;5000683;28;20147;-75
2023/05/14 01:47:57;;;;;;;4.32;0.95;;;;;;;;;;4993161;28;20039;-74
2023/05/14 01:50:23;;;;;;;3.00;0.95;;;;;;;;;;5001391;28;20434;-74
2023/05/14 01:52:52;;;;;;;4.15;1.20;;;;;;;;;;4997813;28;22032;-74
2023/05/14 01:55:18;;;;;;;4.50;1.17;;;;;;;;;;5001479;28;20084;-74
2023/05/14 01:57:44;;;;;;;3.70;0.90;;;;;;;;;;4997811;28;20041;-74
2023/05/14 02:00:11;;;;;;;3.85;0.93;;;;;;;;;;4997974;28;20355;-75
2023/05/14 02:02:37;;;;;;;4.13;0.90;;;;;;;;;;4998711;28;20064;-74
2023/05/14 02:05:06;;;;;;;;;;;;;;;;;;5000485;28;20033;-74
2023/05/14 02:07:32;;;;;;;4.90;1.13;;;;;;;;;;5005720;28;19913;-74
2023/05/14 02:09:58;;;;;;;3.03;0.75;;;;;;;;;;4997622;28;20076;-74
2023/05/14 02:12:25;;;;;;;3.83;1.00;;;;;;;;;;4998365;28;20481;-75
2023/05/14 02:14:51;;;;;;;5.60;0.90;;;;;;;;;;4993550;28;20045;-75
2023/05/14 02:17:17;;;;;;;4.25;0.88;;;;;;;;;;4997103;28;20099;-74
2023/05/14 02:19:44;;;;;;;3.92;1.00;;;;;;;;;;4994235;28;20056;-74
2023/05/14 02:22:10;;;;;;;4.18;1.15;;;;;;;;;;4997771;28;20040;-75
2023/05/14 02:24:36;;;;;;;;;;;;;;;;;;4997332;28;20061;-74
2023/05/14 02:27:02;;;;;;;1.73;0.70;;;;;;;;;;4994583;28;19915;-74
2023/05/14 02:29:28;;;;;;;3.60;0.80;;;;;;;;;;4996505;28;20179;-75
2023/05/14 02:31:54;;;;;;;;;;;;;;;;;;4991136;28;20045;-74
2023/05/14 02:34:20;;;;;;;2.58;0.80;;;;;;;;;;4996817;28;19913;-75
2023/05/14 02:36:46;;;;;;;4.82;0.90;;;;;;;;;;4992023;28;20639;-74
2023/05/14 02:39:13;;;;;;;2.28;0.80;;;;;;;;;;4995115;28;20061;-75
2023/05/14 02:41:39;;;;;;;3.45;0.77;;;;;;;;;;4993786;28;20029;-74
2023/05/14 02:44:05;;;;;;;3.25;0.90;;;;;;;;;;5009093;28;20037;-75
2023/05/14 02:46:31;;;;;;;3.78;0.80;;;;;;;;;;4996059;28;20817;-75
2023/05/14 02:48:57;;;;;;;;;;;;;;;;;;4992041;28;20065;-74
2023/05/14 02:51:23;;;;;;;2.95;0.70;;;;;;;;;;4999752;28;20098;-74
2023/05/14 02:53:49;;;;;;;3.00;0.70;;;;;;;;;;4997537;28;20109;-74
2023/05/14 02:56:15;;;;;;;2.00;0.70;;;;;;;;;;5000358;28;20037;-76
2023/05/14 02:58:42;;;;;;;2.08;0.68;;;;;;;;;;4994710;28;20807;-76
2023/05/14 03:01:08;;;;;;;1.92;0.60;;;;;;;;;;4999182;28;20053;-76
2023/05/14 03:03:34;;;;;;;2.13;0.70;;;;;;;;;;5000069;28;20033;-74
2023/05/14 03:06:00;;;;;;;2.08;0.60;;;;;;;;;;4996745;28;20623;-74
2023/05/14 03:08:27;;;;;;;2.10;0.80;;;;;;;;;;5001342;28;20026;-74
2023/05/14 03:10:53;;;;;;;3.15;0.70;;;;;;;;;;4995289;28;20033;-74
2023/05/14 03:13:19;;;;;;;1.98;0.70;;;;;;;;;;5002188;28;20466;-75
2023/05/14 03:15:46;;;;;;;;;;;;;;;;;;4997354;28;20218;-74
2023/05/14 03:18:12;;;;;;;3.15;0.93;;;;;;;;;;5001144;28;20851;-74
2023/05/14 03:20:38;;;;;;;1.75;0.70;;;;;;;;;;4999943;28;20030;-74
2023/05/14 03:23:04;;;;;;;1.70;0.70;;;;;;;;;;4998317;28;20120;-74
2023/05/14 03:25:30;;;;;;;1.67;0.63;;;;;;;;;;5001719;28;20033;-75
2023/05/14 03:27:57;;;;;;;1.10;0.60;;;;;;;;;;4997086;28;20076;-74
2023/05/14 03:30:23;;;;;;;2.92;0.77;;;;;;;;;;5001148;28;20985;-75
2023/05/14 03:32:50;;;;;;;1.58;0.68;;;;;;;;;;4997709;28;20048;-75
2023/05/14 03:35:16;;;;;;;2.08;0.80;;;;;;;;;;5001338;28;20289;-75
2023/05/14 03:37:42;;;;;;;3.70;0.93;;;;;;;;;;4998984;28;20345;-74
2023/05/14 03:40:08;;;;;;;;;;;;;;;;;;5000097;28;20140;-75
2023/05/14 03:42:34;;;;;;;2.78;0.70;;;;;;;;;;5002145;28;19954;-74
2023/05/14 03:45:00;;;;;;;2.75;0.90;;;;;;;;;;4997516;28;21651;-74
2023/05/14 03:47:26;;;;;;;3.08;0.80;;;;;;;;;;5001484;28;20032;-74
2023/05/14 03:49:52;;;;;;;;;;;;;;;;;;4996193;28;20549;-75
2023/05/14 03:52:18;;;;;;;3.03;0.80;;;;;;;;;;4999069;28;19917;-75
2023/05/14 03:54:45;;;;;;;1.70;0.60;;;;;;;;;;4995623;28;20538;-75
2023/05/14 03:57:11;;;;;;;2.22;0.70;;;;;;;;;;5000228;28;20025;-75
2023/05/14 03:59:37;;;;;;;;;;;;;;;;;;5002660;28;20025;-74
2023/05/14 04:02:03;;;;;;;3.00;0.82;;;;;;;;;;4991539;28;20340;-74
2023/05/14 04:04:29;;;;;;;;;;;;;;;;;;5001308;28;20188;-74
2023/05/14 04:06:55;;;;;;;4.95;1.25;;;;;;;;;;4993558;28;20463;-74
2023/05/14 04:09:22;;;;;;;4.20;1.13;;;;;;;;;;4996577;28;20030;-74
2023/05/14 04:11:48;;;;;;;5.20;1.20;;;;;;;;;;4991459;28;20033;-76
2023/05/14 04:14:14;;;;;;;3.22;1.10;;;;;;;;;;4999807;28;20025;-73
2023/05/14 04:16:41;;;;;;;4.25;0.98;;;;;;;;;;4999666;28;20033;-74
2023/05/14 04:19:07;;;;;;;2.45;0.88;;;;;;;;;;4999703;28;20025;-74
2023/05/14 04:21:33;;;;;;;2.97;1.00;;;;;;;;;;5000664;28;20044;-76
2023/05/14 04:23:59;;;;;;;4.18;1.00;;;;;;;;;;4995684;28;20029;-74
2023/05/14 04:26:25;;;;;;;3.67;1.00;;;;;;;;;;4999996;28;20044;-74
2023/05/14 04:28:51;;;;;;;2.80;0.95;;;;;;;;;;4995763;28;20048;-75
2023/05/14 04:31:17;;;;;;;;;;;;;;;;;;4996866;28;20041;-75
2023/05/14 04:33:43;;;;;;;4.78;1.10;;;;;;;;;;4991934;28;19968;-75
2023/05/14 04:36:10;;;;;;;2.72;1.00;;;;;;;;;;4997319;28;20057;-74
2023/05/14 04:38:36;;;;;;;4.25;1.00;;;;;;;;;;4998996;28;20277;-75
2023/05/14 04:41:02;;;;;;;3.22;0.95;;;;;;;;;;4994342;28;21158;-74
2023/05/14 04:43:28;;;;;;;3.70;0.90;;;;;;;;;;5000542;28;20090;-75
2023/05/14 04:45:54;;;;;;;2.95;0.73;;;;;;;;;;4996216;28;20432;-75
2023/05/14 04:48:21;;;;;;;3.72;1.08;;;;;;;;;;4998413;28;20022;-74
2023/05/14 04:50:47;;;;;;;;;;;;;;;;;;4992770;28;20156;-75
2023/05/14 04:53:13;;;;;;;2.20;0.80;;;;;;;;;;4999238;28;20504;-75
2023/05/14 04:55:39;;;;;;;3.22;0.80;;;;;;;;;;4999492;28;20933;-74
2023/05/14 04:58:06;;;;;;;3.65;1.10;;;;;;;;;;5001411;28;20191;-75
2023/05/14 05:00:32;;;;;;;;;;;;;;;;;;4995357;28;20030;-75
2023/05/14 05:02:58;;;;;;;4.60;1.50;;;;;;;;;;4993693;28;20345;-75
2023/05/14 05:05:24;;;;;;;2.58;1.10;;;;;;;;;;4997735;28;20034;-74
2023/05/14 05:07:50;;;;;;;;;;;;;;;;;;4997181;28;20055;-75
2023/05/14 05:10:16;;;;;;;3.50;1.00;;;;;;;;;;4995375;28;20180;-75
2023/05/14 05:12:42;;;;;;;;;;;;;;;;;;4992545;28;20404;-75
2023/05/14 05:15:09;;;;;;;2.88;1.02;;;;;;;;;;4997580;28;20325;-75
2023/05/14 05:17:35;;;;;;;;;;;;;;;;;;4999079;28;20030;-74
2023/05/14 05:20:03;;;;;;;5.27;1.37;;;;;;;;;;4990938;28;20295;-75
2023/05/14 05:22:29;;;;;;;2.97;1.00;;;;;;;;;;4997309;28;20398;-75
2023/05/14 05:24:58;;;;;;;3.90;1.10;;;;;;;;;;4993153;28;20299;-75
2023/05/14 05:27:25;;;;;;;2.75;1.20;;;;;;;;;;4993863;28;20512;-75
2023/05/14 05:29:51;;;;;;;6.18;1.40;;;;;;;;;;4993795;28;20117;-74
2023/05/14 05:32:17;;;;;;;5.00;1.30;;;;;;;;;;4993208;28;20274;-74
2023/05/14 05:34:43;;;;;;;4.53;1.17;;;;;;;;;;4993650;28;20503;-74
2023/05/14 05:37:11;;;;;;;4.13;1.20;;;;;;;;;;4996686;28;20029;-75
2023/05/14 05:39:38;;;;;;;5.15;1.30;;;;;;;;;;4996493;28;20359;-75
2023/05/14 05:42:05;;;;;;;4.78;1.17;;;;;;;;;;4991434;28;20025;-75
2023/05/14 05:44:31;;;;;;;4.60;1.30;;;;;;;;;;4996179;28;20083;-75
2023/05/14 05:46:57;;;;;;;6.18;2.05;;;;;;;;;;4993634;28;20150;-75
2023/05/14 05:49:23;;;;;;;8.38;2.85;;;;;;;;;;4996194;28;20632;-75
2023/05/14 05:51:49;;;;;;;6.35;1.80;;;;;;;;;;4994622;28;20036;-74
2023/05/14 05:54:15;;;;;;;4.55;1.80;;;;;;;;;;4997164;28;20071;-74
2023/05/14 05:56:43;;;;;;;6.03;1.63;;;;;;;;;;4994453;28;20784;-74
2023/05/14 05:59:10;;;;;;;4.38;1.30;;;;;;;;;;4997520;28;20026;-74
2023/05/14 06:01:36;;;;;;;3.80;1.20;;;;;;;;;;4993474;28;20064;-77
2023/05/14 06:04:04;;;;;;;;;;;;;;;;;;4992672;28;20476;-74
2023/05/14 06:06:31;;;;;;;4.35;1.33;;;;;;;;;;4997602;28;19909;-77
2023/05/14 06:08:57;;;;;;;6.68;2.03;;;;;;;;;;5008578;28;20037;-76
2023/05/14 06:11:23;;;;;;;;;;;;;;;;;;4997477;28;20025;-75
2023/05/14 06:13:49;;;;;;;4.38;1.08;;;;;;;;;;4992227;28;20251;-76
2023/05/14 06:16:15;;;;;;;4.75;1.00;;;;;;;;;;4995640;28;20041;-76
2023/05/14 06:18:42;;;;;;;3.00;0.95;;;;;;;;;;4994120;28;20218;-76
2023/05/14 06:21:08;;;;;;;3.17;0.88;;;;;;;;;;4996405;28;20033;-75
2023/05/14 06:23:34;;;;;;;2.83;0.82;;;;;;;;;;4996220;28;20032;-74
2023/05/14 06:26:00;;;;;;;;;;;;;;;;;;4997378;28;21818;-75
2023/05/14 06:28:26;;;;;;;3.40;0.88;;;;;;;;;;5000549;28;19917;-75
2023/05/14 06:30:55;;;;;;;;;;;;;;;;;;5028090;28;20095;-75
2023/05/14 06:33:28;;;;;;;3.63;1.02;;;;;;;;;;4996242;28;20632;-75
2023/05/14 06:35:54;;;;;;;8.02;1.92;;;;;;;;;;4998355;28;20032;-75
2023/05/14 06:38:21;;;;;;;5.72;1.50;;;;;;;;;;5002723;28;20373;-75
2023/05/14 06:40:47;;;;;;;;;;;;;;;;;;4998093;28;20606;-75
2023/05/14 06:43:13;;;;;;;4.97;1.23;;;;;;;;;;4996056;28;20361;-75
2023/05/14 06:45:39;;;;;;;;;;;;;;;;;;5000970;28;20030;-75
2023/05/14 06:48:05;;;;;;;5.53;0.98;;;;;;;;;;4997934;28;19924;-75
2023/05/14 06:50:31;;;;;;;;;;;;;;;;;;5002790;28;20520;-75
2023/05/14 06:52:57;;;;;;;4.13;1.00;;;;;;;;;;4999095;28;19968;-75
2023/05/14 06:55:23;;;;;;;;;;;;;;;;;;5002019;28;20029;-75
2023/05/14 06:57:49;;;;;;;5.07;1.40;;;;;;;;;;4995250;28;19983;-74
2023/05/14 07:00:16;;;;;;;5.45;1.20;;;;;;;;;;4998109;28;20103;-75
2023/05/14 07:02:42;;;;;;;5.13;1.10;;;;;;;;;;4997921;28;20049;-75
2023/05/14 07:05:08;;;;;;;6.72;0.88;;;;;;;;;;5000325;28;20031;-76
2023/05/14 07:07:34;;;;;;;3.13;0.80;;;;;;;;;;5000994;28;20037;-75
2023/05/14 07:10:00;;;;;;;;;;;;;;;;;;4998151;28;20177;-75
2023/05/14 07:12:27;;;;;;;5.15;0.90;;;;;;;;;;4998852;28;19925;-76
2023/05/14 07:14:52;;;;;;;;;;;;;;;;;;4998664;28;20134;-76
2023/05/14 07:17:19;;;;;;;4.60;1.08;;;;;;;;;;5000404;28;20336;-76
2023/05/14 07:19:46;;;;;;;4.85;1.00;;;;;;;;;;4994763;28;20075;-76
2023/05/14 07:22:12;;;;;;;4.63;0.85;;;;;;;;;;4999817;28;20363;-76
2023/05/14 07:24:38;;;;;;;;;;;;;;;;;;5002371;28;20036;-76
2023/05/14 07:27:05;;;;;;;3.50;0.85;;;;;;;;;;4995273;28;19917;-75
2023/05/14 07:29:33;;;;;;;5.35;1.33;;;;;;;;;;4999273;28;20033;-75
2023/05/14 07:32:00;;;;;;;5.68;1.15;;;;;;;;;;5011814;28;20042;-75
2023/05/14 07:34:26;;;;;;;3.85;1.10;;;;;;;;;;5001390;28;20108;-76
2023/05/14 07:36:52;;;;;;;;;;;;;;;;;;4997432;28;20446;-76
2023/05/14 07:39:18;;;;;;;4.35;1.10;;;;;;;;;;5001254;28;19919;-76
2023/05/14 07:41:44;;;;;;;6.57;1.20;;;;;;;;;;4998376;28;20116;-76
2023/05/14 07:44:10;;;;;;;;;;;;;;;;;;5002171;28;20353;-75
2023/05/14 07:46:37;;;;;;;3.83;0.93;;;;;;;;;;5001036;28;20283;-75
2023/05/14 07:49:03;;;;;;;4.22;1.00;;;;;;;;;;4998576;28;20103;-75
2023/05/14 07:51:29;;;;;;;4.38;1.10;;;;;;;;;;4999881;28;20417;-77
2023/05/14 07:53:55;;;;;;;3.63;1.00;;;;;;;;;;4993219;28;20124;-75
2023/05/14 07:56:21;;;;;;;;;;;;;;;;;;4997174;28;20603;-77
2023/05/14 07:58:47;;;;;;;4.90;1.30;;;;;;;;;;4993057;28;19917;-75
2023/05/14 08:01:13;;;;;;;7.07;1.23;;;;;;;;;;4996746;28;20200;-75
2023/05/14 08:03:40;;;;;;;4.32;1.00;;;;;;;;;;4995691;28;20439;-76
2023/05/14 08:06:06;;;;;;;5.85;1.00;;;;;;;;;;4997094;28;20025;-77
2023/05/14 08:08:32;;;;;;;5.45;0.90;;;;;;;;;;4996940;28;20158;-76
2023/05/14 08:10:58;;;;;;;4.25;1.25;;;;;;;;;;4993597;28;20029;-76
2023/05/14 08:13:24;;;;;;;7.43;1.20;;;;;;;;;;4999176;28;20087;-76
2023/05/14 08:15:51;;;;;;;3.78;0.90;;;;;;;;;;4994888;28;20108;-76
2023/05/14 08:18:17;;;;;;;4.43;0.95;;;;;;;;;;4998250;28;20142;-76
2023/05/14 08:20:43;;;;;;;4.45;1.20;;;;;;;;;;4995896;28;20314;-76
2023/05/14 08:23:09;;;;;;;3.33;0.95;;;;;;;;;;4995209;28;20037;-77
2023/05/14 08:25:35;;;;;;;3.35;0.88;;;;;;;;;;4997608;28;20029;-76
2023/05/14 08:28:01;;;;;;;3.22;0.85;;;;;;;;;;4993428;28;20462;-76
2023/05/14 08:30:28;;;;;;;4.82;1.00;;;;;;;;;;4992371;28;20388;-76
2023/05/14 08:32:54;;;;;;;3.78;0.70;;;;;;;;;;4996405;28;20566;-76
2023/05/14 08:35:20;;;;;;;5.22;1.00;;;;;;;;;;4994424;28;20032;-76
2023/05/14 08:37:46;;;;;;;4.10;0.90;;;;;;;;;;4993484;28;20029;-76
2023/05/14 08:40:13;;;;;;;4.07;0.95;;;;;;;;;;4995241;28;20014;-76
2023/05/14 08:42:43;;;;;;;4.03;1.00;;;;;;;;;;4994842;28;20037;-76
2023/05/14 08:45:19;;;;;;;2.92;0.90;;;;;;;;;;4994852;28;20554;-76
2023/05/14 08:47:50;;;;;;;5.07;1.00;;;;;;;;;;4991409;28;20518;-76
2023/05/14 08:50:17;;;;;;;2.70;0.95;;;;;;;;;;4995153;28;20037;-76
2023/05/14 08:52:43;;;;;;;7.68;1.35;;;;;;;;;;4993105;28;20207;-75
2023/05/14 08:55:10;;;;;;;6.22;1.80;;;;;;;;;;4996495;28;20192;-76
2023/05/14 08:57:36;;;;;;;5.68;1.45;;;;;;;;;;4997305;28;20811;-76
2023/05/14 09:00:22;;;;;;;2.95;1.00;;;;;;;;;;4993406;28;20440;-76
2023/05/14 09:02:48;;;;;;;8.10;2.55;;;;;;;;;;4993038;28;20071;-75
2023/05/14 09:05:14;;;;;;;7.22;1.98;;;;;;;;;;4993942;28;20116;-75
2023/05/14 09:07:41;;;;;;;6.70;1.90;;;;;;;;;;4994688;28;20057;-77
2023/05/14 09:10:07;;;;;;;6.13;2.13;;;;;;;;;;4995831;28;20221;-78
2023/05/14 09:12:34;;;;;;;5.88;1.70;;;;;;;;;;4995039;28;20583;-75
2023/05/14 09:15:00;;;;;;;5.65;1.50;;;;;;;;;;4992776;28;20085;-75
2023/05/14 09:17:26;;;;;;;3.58;1.23;;;;;;;;;;4995836;28;20544;-78
2023/05/14 09:19:53;;;;;;;4.78;1.20;;;;;;;;;;4991606;28;20439;-77
2023/05/14 09:22:19;;;;;;;4.55;1.30;;;;;;;;;;4991131;28;20088;-77
2023/05/14 09:24:46;;;;;;;4.80;1.40;;;;;;;;;;4996789;28;20043;-77
2023/05/14 09:27:19;;;;;;;4.18;1.13;;;;;;;;;;4993183;28;20065;-76
2023/05/14 09:29:45;;;;;;;5.40;1.75;;;;;;;;;;4991126;28;20120;-76
2023/05/14 09:32:11;;;;;;;4.60;1.52;;;;;;;;;;4991941;28;20545;-75
2023/05/14 09:34:37;;;;;;;4.55;1.00;;;;;;;;;;4994433;28;20506;-75
2023/05/14 09:37:05;;;;;;;5.38;1.27;;;;;;;;;;4990048;28;20590;-78
2023/05/14 09:39:31;;;;;;;4.65;1.58;;;;;;;;;;4994356;28;20036;-75
2023/05/14 09:41:58;;;;;;;6.38;2.00;;;;;;;;;;4989406;28;20037;-75
2023/05/14 09:44:25;;;;;;;4.18;1.40;;;;;;;;;;4995121;28;20470;-76
2023/05/14 09:46:52;;;;;;;4.72;1.10;;;;;;;;;;4989570;28;20527;-76
2023/05/14 09:49:18;;;;;;;3.60;1.17;;;;;;;;;;4990941;28;20036;-76
2023/05/14 09:51:44;;;;;;;2.63;0.75;;;;;;;;;;4989586;28;20050;-75
2023/05/14 09:54:11;;;;;;;2.88;0.68;;;;;;;;;;4991801;28;20030;-75
2023/05/14 09:56:38;;;;;;;2.25;0.68;;;;;;;;;;4994865;28;20022;-78
2023/05/14 09:59:04;;;;;;;3.35;0.95;;;;;;;;;;4986131;28;20022;-75
2023/05/14 10:01:31;;;;;;;4.15;1.45;;;;;;;;;;4994497;28;20050;-76
2023/05/14 10:03:58;;;;;;;5.88;1.40;;;;;;;;;;4988740;28;20229;-75
2023/05/14 10:06:32;;;;;;;4.85;1.45;;;;;;;;;;4992671;28;20080;-78
2023/05/14 10:09:07;;;;;;;7.05;2.42;;;;;;;;;;4989820;28;20472;-76
2023/05/14 10:11:36;;;;;;;6.00;2.38;;;;;;;;;;4994256;28;20041;-76
2023/05/14 10:14:07;;;;;;;4.45;1.42;;;;;;;;;;4989819;28;20030;-78
2023/05/14 10:16:34;;;;;;;5.35;1.90;;;;;;;;;;4980061;28;20946;-77
2023/05/14 10:19:02;;;;;;;7.93;3.70;;;;;;;;;;4976646;28;24247;-77
2023/05/14 10:21:30;;;;;;;4.68;1.50;;;;;;;;;;4997203;28;20119;-77
2023/05/14 10:23:57;;;;;;;3.95;1.00;;;;;;;;;;4995966;28;20247;-76
2023/05/14 10:26:23;;;;;;;3.95;1.17;;;;;;;;;;5002109;28;20569;-76
2023/05/14 10:28:49;;;;;;;7.13;1.23;;;;;;;;;;4999869;28;20079;-77
2023/05/14 10:31:16;;;;;;;3.75;1.30;;;;;;;;;;5000496;28;20422;-77
2023/05/14 10:33:53;;;;;;;2.30;0.70;;;;;;;;;;5001280;28;20777;-76
2023/05/14 10:36:19;;;;;;;2.50;0.60;;;;;;;;;;5002462;28;20037;-77
2023/05/14 10:38:46;;;;;;;2.47;0.57;;;;;;;;;;4999191;28;20578;-75
2023/05/14 10:41:16;;;;;;;3.40;0.70;;;;;;;;;;4999368;28;20033;-75
2023/05/14 10:43:43;;;;;;;2.85;0.77;;;;;;;;;;4996786;28;20140;-75
2023/05/14 10:46:10;;;;;;;3.50;0.70;;;;;;;;;;5001672;28;20075;-75
2023/05/14 10:48:37;;;;;;;4.28;0.90;;;;;;;;;;5002772;28;20755;-75
2023/05/14 10:51:03;;;;;;;2.65;0.70;;;;;;;;;;4999777;28;20120;-76
2023/05/14 10:53:39;;;;;;;2.28;0.60;;;;;;;;;;4985856;28;20033;-76
2023/05/14 10:56:12;;;;;;;5.63;1.52;;;;;;;;;;4964258;28;20033;-76
2023/05/14 10:58:42;;;;;;;5.38;1.55;;;;;;;;;;4968592;28;20025;-76
2023/05/14 11:01:10;;;;;;;4.72;1.48;;;;;;;;;;4969993;28;20045;-76
2023/05/14 11:03:41;;;;;;;6.30;2.00;;;;;;;;;;4965099;28;20067;-76
2023/05/14 11:06:08;;;;;;;6.03;1.70;;;;;;;;;;4964012;28;20037;-75
2023/05/14 11:08:34;;;;;;;5.45;1.60;;;;;;;;;;4963100;28;20033;-75
2023/05/14 11:11:00;;;;;;;3.83;1.40;;;;;;;;;;4963905;28;20034;-75
2023/05/14 11:13:27;;;;;;;4.40;1.40;;;;;;;;;;4967001;28;20544;-74
2023/05/14 11:15:53;;;;;;;5.72;1.45;;;;;;;;;;4974499;28;21295;-75
2023/05/14 11:18:27;;;;;;;2.60;0.90;;;;;;;;;;4970912;28;20490;-74
2023/05/14 11:20:53;;;;;;;3.33;0.95;;;;;;;;;;4967661;28;20064;-74
2023/05/14 11:23:24;;;;;;;3.03;1.00;;;;;;;;;;4988593;28;20136;-74
2023/05/14 11:25:51;;;;;;;4.70;0.98;;;;;;;;;;4972658;28;20033;-75
2023/05/14 11:28:17;;;;;;;3.05;0.70;;;;;;;;;;4974249;28;20116;-76
2023/05/14 11:30:45;;;;;;;3.38;0.73;;;;;;;;;;4983894;28;20114;-75
2023/05/14 11:33:11;;;;;;;2.88;0.95;;;;;;;;;;5020762;28;20037;-75
2023/05/14 11:35:39;;;;;;;2.45;0.68;;;;;;;;;;5006159;28;20148;-74
2023/05/14 11:38:05;;;;;;;2.20;0.80;;;;;;;;;;5003565;28;20518;-74
2023/05/14 11:40:31;;;;;;;3.47;1.00;;;;;;;;;;5003851;28;20025;-74
2023/05/14 11:42:57;;;;;;;3.83;1.00;;;;;;;;;;5001212;28;20245;-74
2023/05/14 11:45:31;;;;;;;4.75;0.95;;;;;;;;;;5005925;28;20341;-75
2023/05/14 11:47:58;;;;;;;8.50;1.20;;;;;;;;;;5002513;28;20484;-77
2023/05/14 11:50:24;;;;;;;2.33;1.00;;;;;;;;;;5005255;28;20103;-77
2023/05/14 11:52:50;;;;;;;3.60;1.27;;;;;;;;;;5002878;28;20542;-76
2023/05/14 11:55:17;;;;;;;3.60;1.08;;;;;;;;;;5003374;28;20036;-77
2023/05/14 11:57:43;;;;;;;3.13;0.85;;;;;;;;;;5003362;28;20168;-75
2023/05/14 12:00:15;;;;;;;4.55;1.60;;;;;;;;;;5003103;28;20037;-76
2023/05/14 12:02:41;;;;;;;4.07;1.20;;;;;;;;;;5000490;28;20057;-77
2023/05/14 12:05:10;;;;;;;5.13;1.60;;;;;;;;;;5004828;28;20133;-75
2023/05/14 12:07:36;;;;;;;6.07;1.75;;;;;;;;;;5019741;28;20132;-75
2023/05/14 12:10:03;;;;;;;3.53;1.23;;;;;;;;;;5005097;28;20448;-75
2023/05/14 12:12:34;;;;;;;4.78;1.55;;;;;;;;;;5004875;28;20058;-77
2023/05/14 12:15:00;;;;;;;3.05;1.17;;;;;;;;;;5017613;28;20383;-77
2023/05/14 12:17:26;;;;;;;8.13;1.33;;;;;;;;;;5007243;28;20041;-77
2023/05/14 12:19:52;;;;;;;4.57;1.38;;;;;;;;;;5003302;28;21208;-77
2023/05/14 12:22:22;;;;;;;5.22;1.52;;;;;;;;;;5004187;28;20033;-76
2023/05/14 12:24:58;;;;;;;6.90;2.00;;;;;;;;;;5001265;28;20352;-76
2023/05/14 12:27:25;;;;;;;6.85;1.92;;;;;;;;;;5002191;28;20049;-75
2023/05/14 12:30:02;;;;;;;5.13;1.70;;;;;;;;;;5000717;28;20248;-77
2023/05/14 12:32:28;;;;;;;4.60;1.25;;;;;;;;;;5005141;28;20063;-76
2023/05/14 12:34:54;;;;;;;5.68;1.67;;;;;;;;;;5001772;28;20040;-76
2023/05/14 12:37:20;;;;;;;4.82;1.30;;;;;;;;;;5002667;28;20053;-77
2023/05/14 12:39:48;;;;;;;4.45;1.00;;;;;;;;;;5001572;28;20415;-77
2023/05/14 12:42:15;;;;;;;3.85;1.20;;;;;;;;;;5006079;28;20107;-77
2023/05/14 12:44:41;;;;;;;2.72;0.90;;;;;;;;;;5004112;28;20029;-77
2023/05/14 12:47:07;;;;;;;4.97;1.00;;;;;;;;;;5005791;28;20037;-75
2023/05/14 12:49:33;;;;;;;4.88;1.40;;;;;;;;;;5007018;28;20075;-77
2023/05/14 12:51:59;;;;;;;5.82;1.20;;;;;;;;;;5000469;28;20033;-75
2023/05/14 12:54:26;;;;;;;6.25;1.50;;;;;;;;;;5003877;28;20030;-75
2023/05/14 12:56:52;;;;;;;4.85;1.23;;;;;;;;;;5000614;28;20082;-74
2023/05/14 12:59:18;;;;;;;6.60;1.33;;;;;;;;;;5004341;28;20032;-75
2023/05/14 13:01:44;;;;;;;6.80;1.40;;;;;;;;;;5002549;28;20045;-75
2023/05/14 13:04:13;;;;;;;6.88;1.60;;;;;;;;;;5003063;28;20117;-76
2023/05/14 13:06:39;;;;;;;6.53;1.20;;;;;;;;;;5002290;28;20022;-75
2023/05/14 13:09:06;;;;;;;5.57;1.30;;;;;;;;;;5001319;28;20720;-75
2023/05/14 13:11:32;;;;;;;5.70;1.10;;;;;;;;;;5003512;28;20026;-74
2023/05/14 13:13:59;;;;;;;3.58;1.05;;;;;;;;;;5000013;28;20551;-74
2023/05/14 13:16:26;;;;;;;6.38;1.35;;;;;;;;;;5003365;28;20022;-76
2023/05/14 13:18:52;;;;;;;6.90;1.27;;;;;;;;;;4999268;28;20568;-76
2023/05/14 13:21:19;;;;;;;3.30;0.88;;;;;;;;;;5002620;28;20305;-75
2023/05/14 13:23:45;;;;;;;5.30;1.10;;;;;;;;;;4998052;28;20393;-75
2023/05/14 13:26:11;;;;;;;4.30;1.00;;;;;;;;;;5005157;28;20044;-75
2023/05/14 13:28:37;;;;;;;4.93;1.10;;;;;;;;;;4999932;28;20366;-75
2023/05/14 13:31:10;;;;;;;3.20;1.00;;;;;;;;;;5001499;28;20117;-75
2023/05/14 13:33:37;;;;;;;5.07;1.10;;;;;;;;;;5001381;28;20115;-74
2023/05/14 13:36:03;;;;;;;6.13;1.40;;;;;;;;;;5000988;28;20107;-74
2023/05/14 13:38:30;;;;;;;5.07;1.30;;;;;;;;;;4998124;28;20029;-75
2023/05/14 13:41:00;;;;;;;6.20;1.27;;;;;;;;;;4999608;28;20029;-76
2023/05/14 13:43:27;;;;;;;6.15;1.70;;;;;;;;;;4998690;28;20365;-75
2023/05/14 13:45:53;;;;;;;7.47;1.67;;;;;;;;;;4994516;28;20029;-75
2023/05/14 13:48:19;;;;;;;6.07;1.50;;;;;;;;;;4993214;28;20583;-75
2023/05/14 13:50:45;;;;;;;;;;;;;;;;;;4992894;28;20108;-76
2023/05/14 13:53:11;;;;;;;6.53;1.40;;;;;;;;;;4996726;28;20336;-75
2023/05/14 13:55:37;;;;;;;5.68;1.25;;;;;;;;;;4994674;28;20029;-75
2023/05/14 13:58:03;;;;;;;;;;;;;;;;;;4994830;28;20029;-75
2023/05/14 14:00:29;;;;;;;5.47;1.58;;;;;;;;;;4995783;28;19923;-75
2023/05/14 14:02:56;;;;;;;4.95;1.13;;;;;;;;;;4995149;28;20547;-75
2023/05/14 14:05:27;;;;;;;5.65;1.20;;;;;;;;;;4994191;28;20150;-75
2023/05/14 14:07:53;;;;;;;5.70;1.20;;;;;;;;;;4991246;28;20128;-77
2023/05/14 14:10:19;;;;;;;5.38;1.25;;;;;;;;;;4996275;28;20540;-75
2023/05/14 14:12:46;;;;;;;4.85;1.20;;;;;;;;;;4990125;28;20040;-76
2023/05/14 14:15:12;;;;;;;7.50;1.33;;;;;;;;;;4992063;28;20041;-75
2023/05/14 14:17:40;;;;;;;5.47;1.35;;;;;;;;;;4992693;28;20033;-76
2023/05/14 14:20:08;;;;;;;5.82;1.83;;;;;;;;;;4994194;28;20437;-76
2023/05/14 14:22:34;;;;;;;9.55;2.90;;;;;;;;;;4994324;28;20032;-76
2023/05/14 14:25:01;;;;;;;7.55;2.22;;;;;;;;;;4990369;28;20033;-77
2023/05/14 14:27:29;;;;;;;6.03;1.70;;;;;;;;;;4993860;28;20025;-76
2023/05/14 14:29:56;;;;;;;7.10;1.65;;;;;;;;;;4991403;28;20056;-76
2023/05/14 14:32:22;;;;;;;4.53;1.17;;;;;;;;;;4989890;28;20041;-77
2023/05/14 14:34:48;;;;;;;7.07;1.27;;;;;;;;;;4989140;28;20041;-76
2023/05/14 14:37:14;;;;;;;5.03;1.30;;;;;;;;;;4993948;28;20032;-76
2023/05/14 14:39:40;;;;;;;4.45;1.10;;;;;;;;;;4992516;28;20052;-76
2023/05/14 14:42:07;;;;;;;4.65;1.17;;;;;;;;;;4992826;28;20037;-76
2023/05/14 14:44:33;;;;;;;4.57;0.90;;;;;;;;;;4994686;28;20599;-76
2023/05/14 14:46:59;;;;;;;4.40;0.98;;;;;;;;;;4993522;28;20374;-76
2023/05/14 14:49:26;;;;;;;3.63;0.70;;;;;;;;;;4997557;28;20542;-76
2023/05/14 14:51:52;;;;;;;5.38;1.23;;;;;;;;;;4995601;28;20029;-75
2023/05/14 14:54:18;;;;;;;4.50;1.10;;;;;;;;;;4995654;28;20467;-74